createdAt,value
2017-11-22T00:00:54.256Z,99.21
2017-11-22T00:02:21.662Z,99.13
2017-11-22T00:03:48.576Z,99.14
2017-11-22T00:05:19.766Z,99.23
2017-11-22T00:06:43.128Z,99.35
2017-11-22T00:08:14.362Z,99.31
2017-11-22T00:09:37.422Z,99.66
2017-11-22T00:11:04.664Z,99.82
2017-11-22T00:12:35.761Z,99.94
2017-11-22T00:13:59.115Z,100.00
2017-11-22T00:15:26.174Z,100.00
2017-11-22T00:16:57.422Z,100.00
2017-11-22T00:18:20.658Z,100.00
2017-11-22T00:19:47.931Z,100.00
2017-11-22T00:21:15.334Z,100.00
2017-11-22T00:22:42.543Z,100.00
2017-11-22T00:24:13.743Z,99.84
2017-11-22T00:25:40.992Z,99.89
2017-11-22T00:27:08.126Z,100.00
2017-11-22T00:28:31.371Z,99.93
2017-11-22T00:29:58.624Z,99.72
2017-11-22T00:31:25.730Z,99.72
2017-11-22T00:32:52.863Z,99.87
2017-11-22T00:34:20.184Z,99.73
2017-11-22T00:35:47.580Z,99.67
2017-11-22T00:37:14.736Z,99.58
2017-11-22T00:38:42.009Z,99.52
2017-11-22T00:40:09.297Z,99.62
2017-11-22T00:41:36.527Z,99.81
2017-11-22T00:43:03.907Z,99.82
2017-11-22T00:44:34.802Z,99.87
2017-11-22T00:45:58.082Z,100.00
2017-11-22T00:47:29.161Z,100.00
2017-11-22T00:48:52.322Z,100.00
2017-11-22T00:50:19.626Z,100.00
2017-11-22T00:51:50.937Z,100.00
2017-11-22T00:53:18.230Z,100.00
2017-11-22T00:54:41.387Z,100.00
2017-11-22T00:56:12.528Z,100.00
2017-11-22T00:57:39.986Z,100.00
2017-11-22T00:59:02.992Z,100.00
2017-11-22T01:00:30.304Z,100.00
2017-11-22T01:01:57.269Z,100.00
2017-11-22T01:03:24.581Z,100.00
2017-11-22T01:04:51.806Z,100.00
2017-11-22T01:06:19.064Z,100.00
2017-11-22T01:07:50.519Z,100.00
2017-11-22T01:09:13.714Z,100.00
2017-11-22T01:10:45.114Z,100.00
2017-11-22T01:12:08.300Z,100.00
2017-11-22T01:13:35.454Z,100.00
2017-11-22T01:15:02.516Z,100.00
2017-11-22T01:16:29.818Z,100.00
2017-11-22T01:18:00.987Z,100.00
2017-11-22T01:19:28.167Z,100.00
2017-11-22T01:20:50.860Z,100.00
2017-11-22T01:22:22.263Z,100.00
2017-11-22T01:23:49.474Z,100.00
2017-11-22T01:25:16.702Z,100.00
2017-11-22T01:26:43.707Z,100.00
2017-11-22T01:28:07.029Z,100.00
2017-11-22T01:29:34.305Z,100.00
2017-11-22T01:31:01.434Z,100.00
2017-11-22T01:32:28.678Z,100.00
2017-11-22T01:33:55.839Z,100.00
2017-11-22T01:35:26.997Z,100.00
2017-11-22T01:36:50.151Z,100.00
2017-11-22T01:38:17.420Z,100.00
2017-11-22T01:39:44.829Z,100.00
2017-11-22T01:41:12.215Z,100.00
2017-11-22T01:42:43.575Z,100.00
2017-11-22T01:44:06.878Z,100.00
2017-11-22T01:45:34.174Z,100.00
2017-11-22T01:47:05.184Z,100.00
2017-11-22T01:48:32.446Z,100.00
2017-11-22T01:49:59.648Z,100.00
2017-11-22T01:51:26.684Z,100.00
2017-11-22T01:52:50.066Z,100.00
2017-11-22T01:54:21.182Z,100.00
2017-11-22T01:55:48.547Z,100.00
2017-11-22T01:57:11.834Z,100.00
2017-11-22T01:58:43.354Z,100.00
2017-11-22T02:00:06.552Z,100.00
2017-11-22T02:01:34.027Z,100.00
2017-11-22T02:03:05.231Z,100.00
2017-11-22T02:04:28.562Z,100.00
2017-11-22T02:05:59.661Z,100.00
2017-11-22T02:07:26.806Z,100.00
2017-11-22T02:08:53.946Z,100.00
2017-11-22T02:10:21.185Z,100.00
2017-11-22T02:11:44.602Z,100.00
2017-11-22T02:13:11.867Z,100.00
2017-11-22T02:14:39.102Z,100.00
2017-11-22T02:16:06.451Z,100.00
2017-11-22T02:17:33.718Z,100.00
2017-11-22T02:19:04.994Z,100.00
2017-11-22T02:20:28.098Z,100.00
2017-11-22T02:21:59.285Z,100.00
2017-11-22T02:23:22.493Z,100.00
2017-11-22T02:24:49.872Z,100.00
2017-11-22T02:26:17.025Z,100.00
2017-11-22T02:27:44.292Z,100.00
2017-11-22T02:29:15.553Z,100.00
2017-11-22T02:30:38.839Z,100.00
2017-11-22T02:32:06.035Z,100.00
2017-11-22T02:33:33.089Z,100.00
2017-11-22T02:35:00.402Z,100.00
2017-11-22T02:36:31.527Z,100.00
2017-11-22T02:37:54.871Z,100.00
2017-11-22T02:39:21.999Z,100.00
2017-11-22T02:40:53.384Z,100.00
2017-11-22T02:42:16.643Z,100.00
2017-11-22T02:43:43.883Z,100.00
2017-11-22T02:45:15.053Z,100.00
2017-11-22T02:46:38.301Z,100.00
2017-11-22T02:48:09.733Z,100.00
2017-11-22T02:49:32.638Z,100.00
2017-11-22T02:51:00.042Z,100.00
2017-11-22T02:52:27.029Z,100.00
2017-11-22T02:53:58.205Z,100.00
2017-11-22T02:55:25.616Z,100.00
2017-11-22T02:56:48.913Z,100.00
2017-11-22T02:58:16.277Z,100.00
2017-11-22T02:59:43.650Z,100.00
2017-11-22T03:01:10.936Z,100.00
2017-11-22T03:02:38.158Z,100.00
2017-11-22T03:04:09.465Z,100.00
2017-11-22T03:05:32.742Z,100.00
2017-11-22T03:07:04.023Z,100.00
2017-11-22T03:08:27.334Z,100.00
2017-11-22T03:09:58.515Z,100.00
2017-11-22T03:11:21.866Z,100.00
2017-11-22T03:12:49.107Z,100.00
2017-11-22T03:14:16.417Z,100.00
2017-11-22T03:15:43.828Z,100.00
2017-11-22T03:17:11.200Z,100.00
2017-11-22T03:18:42.546Z,100.00
2017-11-22T03:20:05.876Z,100.00
2017-11-22T03:21:33.255Z,100.00
2017-11-22T03:23:04.525Z,100.00
2017-11-22T03:24:27.849Z,100.00
2017-11-22T03:25:55.237Z,100.00
2017-11-22T03:27:22.476Z,100.00
2017-11-22T03:28:49.747Z,100.00
2017-11-22T03:30:21.122Z,100.00
2017-11-22T03:31:48.320Z,100.00
2017-11-22T03:33:11.513Z,100.00
2017-11-22T03:34:38.737Z,100.00
2017-11-22T03:36:05.965Z,100.00
2017-11-22T03:37:33.444Z,100.00
2017-11-22T03:39:00.721Z,100.00
2017-11-22T03:40:27.927Z,100.00
2017-11-22T03:41:55.110Z,100.00
2017-11-22T03:43:22.255Z,100.00
2017-11-22T03:44:49.603Z,100.00
2017-11-22T03:46:21.032Z,100.00
2017-11-22T03:47:44.374Z,100.00
2017-11-22T03:49:11.451Z,100.00
2017-11-22T03:50:38.798Z,100.00
2017-11-22T03:52:06.016Z,100.00
2017-11-22T03:53:33.306Z,100.00
2017-11-22T03:55:00.644Z,100.00
2017-11-22T03:56:32.022Z,100.00
2017-11-22T03:57:55.101Z,100.00
2017-11-22T03:59:22.198Z,100.00
2017-11-22T04:00:53.237Z,100.00
2017-11-22T04:02:16.716Z,100.00
2017-11-22T04:03:43.958Z,100.00
2017-11-22T04:05:11.240Z,100.00
2017-11-22T04:06:42.617Z,100.00
2017-11-22T04:08:10.035Z,100.00
2017-11-22T04:09:33.277Z,100.00
2017-11-22T04:11:04.426Z,100.00
2017-11-22T04:12:27.626Z,100.00
2017-11-22T04:13:54.873Z,100.00
2017-11-22T04:15:25.946Z,100.00
2017-11-22T04:16:49.517Z,100.00
2017-11-22T04:18:16.701Z,100.00
2017-11-22T04:19:43.975Z,100.00
2017-11-22T04:21:11.312Z,100.00
2017-11-22T04:22:38.623Z,100.00
2017-11-22T04:24:05.860Z,100.00
2017-11-22T04:25:33.093Z,100.00
2017-11-22T04:27:00.397Z,100.00
2017-11-22T04:28:27.579Z,100.00
2017-11-22T04:29:58.782Z,100.00
2017-11-22T04:31:25.877Z,100.00
2017-11-22T04:32:49.061Z,100.00
2017-11-22T04:34:16.362Z,100.00
2017-11-22T04:35:43.686Z,100.00
2017-11-22T04:37:11.118Z,100.00
2017-11-22T04:38:42.282Z,100.00
2017-11-22T04:40:05.572Z,100.00
2017-11-22T04:41:36.865Z,100.00
2017-11-22T04:43:04.151Z,100.00
2017-11-22T04:44:27.426Z,100.00
2017-11-22T04:45:54.695Z,100.00
2017-11-22T04:47:21.906Z,100.00
2017-11-22T04:48:53.239Z,100.00
2017-11-22T04:50:20.602Z,100.00
2017-11-22T04:51:43.883Z,100.00
2017-11-22T04:53:11.186Z,100.00
2017-11-22T04:54:42.441Z,100.00
2017-11-22T04:56:05.850Z,100.00
2017-11-22T04:57:32.971Z,100.00
2017-11-22T04:59:04.135Z,100.00
2017-11-22T05:00:31.455Z,100.00
2017-11-22T05:01:54.647Z,100.00
2017-11-22T05:03:22.067Z,100.00
2017-11-22T05:04:49.277Z,100.00
2017-11-22T05:06:16.515Z,100.00
2017-11-22T05:07:43.820Z,100.00
2017-11-22T05:09:15.096Z,100.00
2017-11-22T05:10:38.517Z,100.00
2017-11-22T05:12:09.896Z,100.00
2017-11-22T05:13:33.091Z,100.00
2017-11-22T05:15:04.356Z,100.00
2017-11-22T05:16:31.791Z,100.00
2017-11-22T05:17:55.058Z,100.00
2017-11-22T05:19:22.076Z,100.00
2017-11-22T05:20:49.453Z,100.00
2017-11-22T05:22:16.779Z,100.00
2017-11-22T05:23:48.222Z,100.00
2017-11-22T05:25:15.658Z,100.00
2017-11-22T05:26:38.858Z,100.00
2017-11-22T05:28:10.148Z,100.00
2017-11-22T05:29:33.456Z,100.00
2017-11-22T05:31:00.655Z,100.00
2017-11-22T05:32:27.917Z,100.00
2017-11-22T05:33:55.188Z,100.00
2017-11-22T05:35:22.478Z,100.00
2017-11-22T05:36:49.657Z,100.00
2017-11-22T05:38:21.220Z,100.00
2017-11-22T05:39:44.348Z,100.00
2017-11-22T05:41:11.644Z,100.00
2017-11-22T05:42:39.048Z,100.00
2017-11-22T05:44:06.404Z,100.00
2017-11-22T05:45:33.866Z,100.00
2017-11-22T05:47:01.169Z,100.00
2017-11-22T05:48:28.652Z,100.00
2017-11-22T05:49:55.909Z,100.00
2017-11-22T05:51:23.125Z,100.00
2017-11-22T05:52:54.377Z,100.00
2017-11-22T05:54:17.699Z,100.00
2017-11-22T05:55:45.118Z,100.00
2017-11-22T05:57:16.340Z,100.00
2017-11-22T05:58:43.655Z,100.00
2017-11-22T06:00:06.926Z,100.00
2017-11-22T06:01:38.164Z,100.00
2017-11-22T06:03:05.514Z,100.00
2017-11-22T06:04:28.666Z,100.00
2017-11-22T06:05:56.042Z,100.00
2017-11-22T06:07:23.237Z,100.00
2017-11-22T06:08:50.593Z,100.00
2017-11-22T06:10:17.965Z,100.00
2017-11-22T06:11:45.233Z,100.00
2017-11-22T06:13:12.624Z,100.00
2017-11-22T06:14:40.051Z,100.00
2017-11-22T06:16:07.418Z,100.00
2017-11-22T06:17:34.746Z,100.00
2017-11-22T06:19:01.986Z,100.00
2017-11-22T06:20:33.293Z,100.00
2017-11-22T06:22:00.561Z,100.00
2017-11-22T06:23:23.775Z,100.00
2017-11-22T06:24:51.065Z,100.00
2017-11-22T06:26:18.347Z,100.00
2017-11-22T06:27:45.560Z,100.00
2017-11-22T06:29:13.006Z,100.00
2017-11-22T06:30:40.368Z,100.00
2017-11-22T06:32:11.662Z,100.00
2017-11-22T06:33:39.047Z,100.00
2017-11-22T06:35:06.254Z,100.00
2017-11-22T06:36:33.545Z,100.00
2017-11-22T06:38:00.940Z,100.00
2017-11-22T06:39:24.306Z,100.00
2017-11-22T06:40:55.510Z,100.00
2017-11-22T06:42:22.777Z,100.00
2017-11-22T06:43:46.265Z,100.00
2017-11-22T06:45:13.666Z,100.00
2017-11-22T06:46:44.880Z,100.00
2017-11-22T06:48:08.264Z,100.00
2017-11-22T06:49:35.646Z,100.00
2017-11-22T06:51:02.939Z,100.00
2017-11-22T06:52:30.324Z,100.00
2017-11-22T06:54:01.726Z,100.00
2017-11-22T06:55:24.916Z,100.00
2017-11-22T06:56:52.069Z,100.00
2017-11-22T06:58:19.374Z,100.00
2017-11-22T06:59:47.079Z,100.00
2017-11-22T07:01:14.736Z,100.00
2017-11-22T07:02:42.059Z,100.00
2017-11-22T07:04:13.274Z,100.00
2017-11-22T07:05:36.556Z,100.00
2017-11-22T07:07:08.052Z,100.00
2017-11-22T07:08:34.993Z,100.00
2017-11-22T07:09:58.607Z,100.00
2017-11-22T07:11:25.735Z,100.00
2017-11-22T07:12:52.992Z,100.00
2017-11-22T07:14:20.319Z,100.00
2017-11-22T07:15:47.611Z,100.00
2017-11-22T07:17:14.909Z,100.00
2017-11-22T07:18:42.363Z,100.00
2017-11-22T07:20:09.689Z,100.00
2017-11-22T07:21:37.044Z,100.00
2017-11-22T07:23:08.300Z,100.00
2017-11-22T07:24:31.729Z,100.00
2017-11-22T07:26:02.926Z,100.00
2017-11-22T07:27:30.467Z,100.00
2017-11-22T07:28:53.795Z,100.00
2017-11-22T07:30:21.148Z,100.00
2017-11-22T07:31:52.473Z,100.00
2017-11-22T07:33:15.750Z,100.00
2017-11-22T07:34:43.107Z,100.00
2017-11-22T07:36:10.445Z,100.00
2017-11-22T07:37:37.861Z,100.00
2017-11-22T07:39:05.414Z,100.00
2017-11-22T07:40:32.711Z,100.00
2017-11-22T07:41:59.936Z,100.00
2017-11-22T07:43:26.917Z,100.00
2017-11-22T07:44:54.194Z,100.00
2017-11-22T07:46:24.622Z,100.00
2017-11-22T07:47:49.019Z,100.00
2017-11-22T07:49:16.280Z,100.00
2017-11-22T07:50:43.646Z,100.00
2017-11-22T07:52:10.883Z,100.00
2017-11-22T07:53:38.276Z,100.00
2017-11-22T07:55:05.718Z,100.00
2017-11-22T07:56:33.091Z,100.00
2017-11-22T07:58:00.211Z,100.00
2017-11-22T07:59:27.319Z,100.00
2017-11-22T08:00:54.598Z,100.00
2017-11-22T08:02:21.722Z,100.00
2017-11-22T08:03:48.931Z,100.00
2017-11-22T08:05:16.238Z,100.00
2017-11-22T08:06:47.534Z,100.00
2017-11-22T08:08:10.550Z,100.00
2017-11-22T08:09:37.953Z,100.00
2017-11-22T08:11:09.197Z,100.00
2017-11-22T08:12:32.863Z,100.00
2017-11-22T08:14:00.084Z,100.00
2017-11-22T08:15:27.557Z,100.00
2017-11-22T08:16:54.721Z,100.00
2017-11-22T08:18:25.796Z,100.00
2017-11-22T08:19:49.201Z,100.00
2017-11-22T08:21:16.582Z,100.00
2017-11-22T08:22:43.871Z,100.00
2017-11-22T08:24:11.152Z,100.00
2017-11-22T08:25:38.527Z,100.00
2017-11-22T08:27:09.827Z,100.00
2017-11-22T08:28:33.266Z,100.00
2017-11-22T08:30:00.435Z,100.00
2017-11-22T08:31:27.702Z,100.00
2017-11-22T08:32:55.106Z,100.00
2017-11-22T08:34:22.106Z,100.00
2017-11-22T08:35:53.455Z,100.00
2017-11-22T08:37:16.821Z,100.00
2017-11-22T08:38:44.258Z,100.00
2017-11-22T08:40:11.459Z,100.00
2017-11-22T08:41:38.803Z,100.00
2017-11-22T08:43:09.966Z,100.00
2017-11-22T08:44:33.411Z,100.00
2017-11-22T08:46:00.762Z,100.00
2017-11-22T08:47:31.921Z,100.00
2017-11-22T08:48:55.101Z,100.00
2017-11-22T08:50:22.292Z,100.00
2017-11-22T08:51:49.432Z,100.00
2017-11-22T08:53:16.598Z,100.00
2017-11-22T08:54:44.028Z,100.00
2017-11-22T08:56:11.297Z,100.00
2017-11-22T08:57:38.717Z,100.00
2017-11-22T08:59:09.983Z,100.00
2017-11-22T09:00:33.269Z,100.00
2017-11-22T09:02:00.345Z,100.00
2017-11-22T09:03:31.450Z,100.00
2017-11-22T09:04:58.861Z,100.00
2017-11-22T09:06:22.021Z,100.00
2017-11-22T09:07:53.145Z,100.00
2017-11-22T09:09:16.642Z,100.00
2017-11-22T09:10:47.901Z,100.00
2017-11-22T09:12:11.333Z,100.00
2017-11-22T09:13:42.562Z,100.00
2017-11-22T09:15:06.123Z,100.00
2017-11-22T09:16:33.011Z,100.00
2017-11-22T09:18:00.418Z,100.00
2017-11-22T09:19:27.836Z,100.00
2017-11-22T09:20:54.957Z,100.00
2017-11-22T09:22:22.125Z,100.00
2017-11-22T09:23:53.171Z,100.00
2017-11-22T09:25:20.355Z,100.00
2017-11-22T09:26:43.583Z,100.00
2017-11-22T09:28:11.120Z,100.00
2017-11-22T09:29:38.056Z,100.00
2017-11-22T09:31:05.551Z,100.00
2017-11-22T09:32:32.883Z,100.00
2017-11-22T09:34:04.088Z,100.00
2017-11-22T09:35:27.438Z,100.00
2017-11-22T09:36:54.684Z,100.00
2017-11-22T09:38:26.279Z,100.00
2017-11-22T09:39:49.516Z,100.00
2017-11-22T09:41:16.937Z,100.00
2017-11-22T09:42:44.335Z,100.00
2017-11-22T09:44:15.822Z,100.00
2017-11-22T09:45:39.117Z,100.00
2017-11-22T09:47:06.518Z,100.00
2017-11-22T09:48:33.921Z,100.00
2017-11-22T09:50:01.198Z,100.00
2017-11-22T09:51:28.561Z,100.00
2017-11-22T09:52:55.832Z,100.00
2017-11-22T09:54:26.851Z,100.00
2017-11-22T09:55:50.360Z,100.00
2017-11-22T09:57:21.558Z,100.00
2017-11-22T09:58:45.031Z,100.00
2017-11-22T10:00:12.134Z,100.00
2017-11-22T10:01:39.314Z,100.00
2017-11-22T10:03:10.480Z,100.00
2017-11-22T10:04:33.905Z,100.00
2017-11-22T10:06:01.278Z,100.00
2017-11-22T10:07:28.708Z,100.00
2017-11-22T10:09:00.108Z,100.00
2017-11-22T10:10:23.154Z,100.00
2017-11-22T10:11:50.479Z,100.00
2017-11-22T10:13:17.793Z,100.00
2017-11-22T10:14:45.157Z,100.00
2017-11-22T10:16:12.662Z,100.00
2017-11-22T10:17:39.948Z,100.00
2017-11-22T10:19:11.483Z,100.00
2017-11-22T10:20:34.846Z,100.00
2017-11-22T10:22:02.248Z,100.00
2017-11-22T10:23:29.694Z,100.00
2017-11-22T10:24:57.098Z,100.00
2017-11-22T10:26:28.273Z,100.00
2017-11-22T10:27:55.767Z,100.00
2017-11-22T10:29:19.115Z,100.00
2017-11-22T10:30:46.420Z,100.00
2017-11-22T10:32:13.717Z,100.00
2017-11-22T10:33:41.107Z,100.00
2017-11-22T10:35:12.489Z,100.00
2017-11-22T10:36:35.883Z,100.00
2017-11-22T10:38:07.167Z,100.00
2017-11-22T10:39:30.543Z,100.00
2017-11-22T10:40:58.035Z,100.00
2017-11-22T10:42:29.279Z,100.00
2017-11-22T10:43:52.431Z,100.00
2017-11-22T10:45:19.865Z,100.00
2017-11-22T10:46:51.147Z,100.00
2017-11-22T10:48:14.620Z,100.00
2017-11-22T10:49:45.937Z,100.00
2017-11-22T10:51:09.090Z,100.00
2017-11-22T10:52:36.467Z,100.00
2017-11-22T10:54:03.754Z,100.00
2017-11-22T10:55:31.228Z,100.00
2017-11-22T10:57:02.418Z,100.00
2017-11-22T10:58:29.619Z,100.00
2017-11-22T10:59:56.991Z,100.00
2017-11-22T11:01:20.456Z,100.00
2017-11-22T11:02:47.774Z,100.00
2017-11-22T11:04:19.104Z,100.00
2017-11-22T11:05:46.639Z,100.00
2017-11-22T11:07:09.963Z,100.00
2017-11-22T11:08:41.026Z,100.00
2017-11-22T11:10:04.407Z,100.00
2017-11-22T11:11:35.923Z,100.00
2017-11-22T11:13:03.228Z,100.00
2017-11-22T11:14:30.623Z,100.00
2017-11-22T11:15:57.888Z,100.00
2017-11-22T11:17:21.305Z,100.00
2017-11-22T11:18:48.592Z,100.00
2017-11-22T11:20:15.791Z,100.00
2017-11-22T11:21:43.246Z,100.00
2017-11-22T11:23:10.588Z,100.00
2017-11-22T11:24:37.911Z,100.00
2017-11-22T11:26:05.360Z,100.00
2017-11-22T11:27:36.499Z,100.00
2017-11-22T11:28:59.964Z,100.00
2017-11-22T11:30:31.223Z,100.00
2017-11-22T11:31:54.427Z,100.00
2017-11-22T11:33:25.731Z,100.00
2017-11-22T11:34:49.231Z,100.00
2017-11-22T11:36:16.599Z,100.00
2017-11-22T11:37:43.884Z,100.00
2017-11-22T11:39:11.509Z,100.00
2017-11-22T11:40:38.676Z,100.00
2017-11-22T11:42:09.727Z,100.00
2017-11-22T11:43:33.214Z,100.00
2017-11-22T11:45:04.512Z,100.00
2017-11-22T11:46:31.765Z,100.00
2017-11-22T11:47:54.897Z,100.00
2017-11-22T11:49:26.022Z,100.00
2017-11-22T11:50:53.460Z,100.00
2017-11-22T11:52:16.652Z,100.00
2017-11-22T11:53:44.089Z,100.00
2017-11-22T11:55:15.403Z,100.00
2017-11-22T11:56:38.725Z,100.00
2017-11-22T11:58:06.061Z,100.00
2017-11-22T11:59:33.366Z,100.00
2017-11-22T12:01:00.681Z,100.00
2017-11-22T12:02:28.128Z,100.00
2017-11-22T12:03:59.369Z,100.00
2017-11-22T12:05:26.766Z,100.00
2017-11-22T12:06:50.074Z,100.00
2017-11-22T12:08:17.178Z,100.00
2017-11-22T12:09:44.668Z,100.00
2017-11-22T12:11:12.056Z,100.00
2017-11-22T12:12:43.248Z,100.00
2017-11-22T12:14:06.642Z,100.00
2017-11-22T12:15:38.023Z,100.00
2017-11-22T12:17:05.334Z,100.00
2017-11-22T12:18:28.691Z,100.00
2017-11-22T12:19:55.897Z,100.00
2017-11-22T12:21:23.161Z,100.00
2017-11-22T12:22:54.607Z,100.00
2017-11-22T12:24:18.097Z,100.00
2017-11-22T12:25:45.498Z,100.00
2017-11-22T12:27:12.801Z,100.00
2017-11-22T12:28:40.149Z,100.00
2017-11-22T12:30:07.636Z,100.00
2017-11-22T12:31:34.990Z,100.00
2017-11-22T12:33:02.373Z,100.00
2017-11-22T12:34:29.619Z,100.00
2017-11-22T12:35:57.024Z,100.00
2017-11-22T12:37:24.446Z,100.00
2017-11-22T12:38:51.751Z,100.00
2017-11-22T12:40:18.985Z,100.00
2017-11-22T12:41:46.258Z,100.00
2017-11-22T12:43:13.746Z,100.00
2017-11-22T12:44:45.029Z,100.00
2017-11-22T12:46:08.307Z,100.00
2017-11-22T12:47:35.710Z,100.00
2017-11-22T12:49:03.179Z,100.00
2017-11-22T12:50:30.568Z,100.00
2017-11-22T12:52:01.941Z,100.00
2017-11-22T12:53:29.178Z,99.98
2017-11-22T12:54:52.327Z,99.93
2017-11-22T12:56:19.529Z,99.93
2017-11-22T12:57:46.838Z,99.91
2017-11-22T12:59:14.229Z,99.80
2017-11-22T13:00:45.647Z,99.74
2017-11-22T13:02:08.923Z,99.72
2017-11-22T13:03:36.488Z,99.70
2017-11-22T13:05:03.797Z,99.65
2017-11-22T13:06:35.253Z,99.60
2017-11-22T13:07:58.428Z,99.59
2017-11-22T13:09:25.734Z,99.59
2017-11-22T13:10:53.079Z,99.55
2017-11-22T13:12:20.320Z,99.52
2017-11-22T13:13:47.667Z,99.57
2017-11-22T13:15:15.068Z,99.57
2017-11-22T13:16:42.445Z,99.63
2017-11-22T13:18:09.769Z,99.58
2017-11-22T13:19:37.140Z,99.52
2017-11-22T13:21:04.543Z,99.42
2017-11-22T13:22:31.759Z,99.36
2017-11-22T13:23:59.076Z,99.32
2017-11-22T13:25:26.442Z,99.25
2017-11-22T13:26:57.652Z,99.19
2017-11-22T13:28:20.894Z,99.18
2017-11-22T13:29:52.182Z,99.15
2017-11-22T13:31:15.521Z,99.17
2017-11-22T13:32:42.757Z,99.23
2017-11-22T13:34:09.956Z,99.37
2017-11-22T13:35:37.293Z,99.53
2017-11-22T13:37:04.541Z,99.58
2017-11-22T13:38:32.062Z,99.64
2017-11-22T13:39:59.309Z,99.77
2017-11-22T13:41:26.716Z,99.88
2017-11-22T13:42:54.021Z,100.00
2017-11-22T13:44:21.442Z,100.00
2017-11-22T13:45:52.925Z,100.00
2017-11-22T13:47:16.218Z,100.00
2017-11-22T13:48:43.586Z,100.00
2017-11-22T13:50:10.728Z,100.00
2017-11-22T13:51:38.108Z,100.00
2017-11-22T13:53:05.504Z,100.00
2017-11-22T13:54:32.778Z,100.00
2017-11-22T13:56:04.051Z,100.00
2017-11-22T13:57:27.180Z,100.00
2017-11-22T13:58:54.349Z,100.00
2017-11-22T14:00:21.775Z,100.00
2017-11-22T14:01:52.986Z,100.00
2017-11-22T14:03:16.438Z,100.00
2017-11-22T14:04:43.805Z,100.00
2017-11-22T14:06:11.197Z,100.00
2017-11-22T14:07:42.336Z,100.00
2017-11-22T14:09:09.828Z,100.00
2017-11-22T14:10:33.141Z,100.00
2017-11-22T14:12:00.570Z,100.00
2017-11-22T14:13:27.749Z,100.00
2017-11-22T14:14:54.982Z,100.00
2017-11-22T14:16:22.115Z,100.00
2017-11-22T14:17:49.496Z,100.00
2017-11-22T14:19:16.843Z,100.00
2017-11-22T14:20:47.970Z,100.00
2017-11-22T14:22:15.291Z,100.00
2017-11-22T14:23:38.732Z,100.00
2017-11-22T14:25:06.156Z,100.00
2017-11-22T14:26:33.460Z,100.00
2017-11-22T14:28:00.784Z,100.00
2017-11-22T14:29:28.085Z,100.00
2017-11-22T14:30:55.380Z,100.00
2017-11-22T14:32:22.589Z,100.00
2017-11-22T14:33:49.942Z,100.00
2017-11-22T14:35:17.227Z,100.00
2017-11-22T14:36:44.303Z,100.00
2017-11-22T14:38:16.607Z,100.00
2017-11-22T14:39:39.034Z,100.00
2017-11-22T14:41:06.511Z,100.00
2017-11-22T14:42:37.843Z,100.00
2017-11-22T14:44:05.061Z,100.00
2017-11-22T14:45:28.418Z,100.00
2017-11-22T14:46:55.679Z,100.00
2017-11-22T14:48:22.780Z,100.00
2017-11-22T14:49:50.098Z,100.00
2017-11-22T14:51:17.541Z,100.00
2017-11-22T14:52:48.757Z,100.00
2017-11-22T14:54:12.184Z,100.00
2017-11-22T14:55:39.283Z,100.00
2017-11-22T14:57:10.768Z,100.00
2017-11-22T14:58:34.007Z,100.00
2017-11-22T15:00:05.476Z,100.00
2017-11-22T15:01:28.611Z,100.00
2017-11-22T15:02:55.946Z,100.00
2017-11-22T15:04:23.167Z,100.00
2017-11-22T15:05:50.377Z,100.00
2017-11-22T15:07:17.673Z,100.00
2017-11-22T15:08:44.938Z,100.00
2017-11-22T15:10:12.101Z,100.00
2017-11-22T15:11:39.533Z,100.00
2017-11-22T15:13:06.870Z,100.00
2017-11-22T15:14:34.109Z,100.00
2017-11-22T15:16:01.561Z,100.00
2017-11-22T15:17:28.708Z,100.00
2017-11-22T15:18:56.024Z,100.00
2017-11-22T15:20:27.378Z,100.00
2017-11-22T15:21:50.633Z,100.00
2017-11-22T15:23:21.587Z,99.91
2017-11-22T15:24:44.883Z,100.00
2017-11-22T15:26:11.818Z,100.00
2017-11-22T15:27:39.058Z,100.00
2017-11-22T15:29:06.401Z,100.00
2017-11-22T15:30:33.842Z,100.00
2017-11-22T15:32:01.165Z,99.96
2017-11-22T15:33:28.317Z,100.00
2017-11-22T15:34:55.478Z,99.96
2017-11-22T15:36:22.600Z,99.86
2017-11-22T15:37:49.804Z,99.85
2017-11-22T15:39:17.156Z,99.81
2017-11-22T15:40:44.562Z,99.79
2017-11-22T15:42:15.949Z,99.76
2017-11-22T15:43:43.271Z,99.78
2017-11-22T15:45:06.445Z,99.76
2017-11-22T15:46:37.728Z,99.72
2017-11-22T15:48:04.979Z,99.67
2017-11-22T15:49:32.423Z,99.68
2017-11-22T15:50:55.626Z,99.56
2017-11-22T15:52:26.817Z,99.50
2017-11-22T15:53:50.275Z,99.53
2017-11-22T15:55:17.439Z,99.48
2017-11-22T15:56:44.821Z,99.45
2017-11-22T15:58:12.104Z,99.43
2017-11-22T15:59:39.286Z,99.42
2017-11-22T16:01:06.727Z,99.39
2017-11-22T16:02:34.071Z,99.31
2017-11-22T16:04:01.405Z,99.25
2017-11-22T16:05:28.574Z,99.25
2017-11-22T16:06:55.870Z,99.25
2017-11-22T16:08:27.057Z,99.20
2017-11-22T16:09:50.410Z,99.22
2017-11-22T16:11:21.671Z,99.13
2017-11-22T16:12:45.015Z,99.14
2017-11-22T16:14:16.494Z,99.08
2017-11-22T16:15:43.669Z,98.99
2017-11-22T16:17:07.174Z,98.89
2017-11-22T16:18:34.353Z,98.94
2017-11-22T16:20:01.861Z,98.91
2017-11-22T16:21:32.958Z,98.83
2017-11-22T16:22:56.400Z,98.84
2017-11-22T16:24:23.665Z,98.76
2017-11-22T16:25:50.950Z,98.74
2017-11-22T16:27:18.416Z,98.69
2017-11-22T16:28:45.425Z,98.67
2017-11-22T16:30:16.539Z,98.60
2017-11-22T16:31:40.087Z,98.58
2017-11-22T16:33:11.430Z,98.46
2017-11-22T16:34:38.850Z,98.39
2017-11-22T16:36:02.177Z,98.34
2017-11-22T16:37:33.435Z,98.31
2017-11-22T16:39:00.643Z,98.23
2017-11-22T16:40:28.004Z,98.20
2017-11-22T16:41:55.257Z,98.20
2017-11-22T16:43:22.450Z,98.18
2017-11-22T16:44:49.805Z,98.15
2017-11-22T16:46:17.249Z,98.13
2017-11-22T16:47:40.486Z,97.99
2017-11-22T16:49:07.892Z,98.06
2017-11-22T16:50:35.114Z,98.04
2017-11-22T16:52:02.513Z,98.13
2017-11-22T16:53:29.800Z,98.13
2017-11-22T16:54:57.068Z,98.06
2017-11-22T16:56:24.475Z,98.05
2017-11-22T16:57:51.540Z,98.05
2017-11-22T16:59:22.694Z,98.08
2017-11-22T17:00:46.164Z,97.92
2017-11-22T17:02:17.600Z,97.79
2017-11-22T17:03:40.942Z,97.65
2017-11-22T17:05:12.246Z,97.58
2017-11-22T17:06:35.654Z,97.45
2017-11-22T17:08:03.181Z,97.41
2017-11-22T17:09:34.452Z,97.30
2017-11-22T17:10:57.759Z,97.36
2017-11-22T17:12:25.035Z,97.31
2017-11-22T17:13:52.243Z,97.25
2017-11-22T17:15:19.669Z,97.15
2017-11-22T17:16:51.105Z,97.02
2017-11-22T17:18:14.152Z,96.82
2017-11-22T17:19:41.409Z,96.92
2017-11-22T17:21:08.852Z,96.83
2017-11-22T17:22:40.035Z,96.79
2017-11-22T17:24:03.557Z,96.63
2017-11-22T17:25:34.663Z,96.57
2017-11-22T17:27:01.939Z,96.50
2017-11-22T17:28:29.190Z,96.50
2017-11-22T17:29:52.474Z,96.32
2017-11-22T17:31:19.753Z,96.52
2017-11-22T17:32:47.108Z,96.30
2017-11-22T17:34:18.388Z,96.47
2017-11-22T17:35:41.722Z,96.29
2017-11-22T17:37:12.822Z,96.05
2017-11-22T17:38:39.938Z,96.08
2017-11-22T17:40:03.273Z,95.82
2017-11-22T17:41:30.466Z,95.76
2017-11-22T17:42:57.773Z,95.45
2017-11-22T17:44:25.149Z,95.35
2017-11-22T17:45:52.214Z,95.31
2017-11-22T17:47:23.470Z,95.03
2017-11-22T17:48:50.727Z,94.89
2017-11-22T17:50:18.140Z,94.94
2017-11-22T17:51:41.231Z,94.63
2017-11-22T17:53:08.767Z,94.53
2017-11-22T17:54:39.880Z,94.76
2017-11-22T17:56:07.117Z,94.76
2017-11-22T17:57:34.555Z,94.54
2017-11-22T17:58:57.774Z,94.66
2017-11-22T18:00:25.003Z,94.66
2017-11-22T18:01:56.120Z,94.46
2017-11-22T18:03:19.609Z,94.56
2017-11-22T18:04:46.896Z,94.56
2017-11-22T18:06:14.247Z,94.39
2017-11-22T18:07:49.581Z,94.39
2017-11-22T18:09:12.902Z,94.12
2017-11-22T18:10:36.094Z,93.98
2017-11-22T18:12:03.475Z,93.97
2017-11-22T18:13:30.858Z,93.80
2017-11-22T18:14:58.277Z,94.03
2017-11-22T18:16:25.650Z,93.58